createdAt,value
2019-06-07T00:00:47.584Z,16.02
2019-06-07T00:03:28.937Z,16.01
2019-06-07T00:05:47.689Z,15.98
2019-06-07T00:08:24.747Z,15.97
2019-06-07T00:10:47.577Z,15.96
2019-06-07T00:13:20.175Z,15.95
2019-06-07T00:15:47.653Z,15.94
2019-06-07T00:18:23.568Z,15.94
2019-06-07T00:20:47.464Z,15.92
2019-06-07T00:23:20.740Z,15.91
2019-06-07T00:25:47.346Z,15.89
2019-06-07T00:28:17.287Z,15.87
2019-06-07T00:30:51.973Z,15.85
2019-06-07T00:33:23.363Z,15.83
2019-06-07T00:35:48.874Z,15.79
2019-06-07T00:38:20.464Z,15.77
2019-06-07T00:40:49.473Z,15.74
2019-06-07T00:43:24.810Z,15.71
2019-06-07T00:45:49.364Z,15.67
2019-06-07T00:48:27.454Z,15.64
2019-06-07T00:50:49.254Z,15.62
2019-06-07T00:53:28.821Z,15.59
2019-06-07T00:55:49.139Z,15.57
2019-06-07T00:58:21.849Z,15.53
2019-06-07T01:00:49.037Z,15.51
2019-06-07T01:03:20.485Z,15.49
2019-06-07T01:05:48.934Z,15.45
2019-06-07T01:08:19.990Z,15.42
2019-06-07T01:10:53.787Z,15.40
2019-06-07T01:13:22.754Z,15.36
2019-06-07T01:15:50.470Z,15.32
2019-06-07T01:18:37.848Z,15.30
2019-06-07T01:20:50.298Z,15.26
2019-06-07T01:24:05.355Z,15.23
2019-06-07T01:25:50.168Z,15.20
2019-06-07T01:28:21.419Z,15.18
2019-06-07T01:30:50.100Z,15.17
2019-06-07T01:33:20.860Z,15.13
2019-06-07T01:35:50.007Z,15.09
2019-06-07T01:38:22.878Z,15.07
2019-06-07T01:40:49.864Z,15.04
2019-06-07T01:43:19.524Z,15.00
2019-06-07T01:45:49.672Z,14.99
2019-06-07T01:48:22.809Z,14.96
2019-06-07T01:50:49.543Z,14.94
2019-06-07T01:53:21.718Z,14.89
2019-06-07T01:55:49.524Z,14.86
2019-06-07T01:58:19.846Z,14.83
2019-06-07T02:00:49.593Z,14.80
2019-06-07T02:03:21.393Z,14.78
2019-06-07T02:05:49.491Z,14.79
2019-06-07T02:08:20.036Z,14.77
2019-06-07T02:10:49.375Z,14.77
2019-06-07T02:13:18.790Z,14.76
2019-06-07T02:15:47.941Z,14.74
2019-06-07T02:18:17.044Z,14.70
2019-06-07T02:20:46.117Z,14.72
2019-06-07T02:23:15.209Z,14.68
2019-06-07T02:25:50.182Z,14.70
2019-06-07T02:28:30.021Z,14.69
2019-06-07T02:30:58.954Z,14.69
2019-06-07T02:33:16.761Z,14.70
2019-06-07T02:35:45.804Z,14.70
2019-06-07T02:38:14.897Z,14.72
2019-06-07T02:40:43.988Z,14.70
2019-06-07T02:43:13.064Z,14.71
2019-06-07T02:45:43.443Z,14.69
2019-06-07T02:48:13.015Z,14.71
2019-06-07T02:50:42.310Z,14.72
2019-06-07T02:53:11.469Z,14.72
2019-06-07T02:56:33.265Z,14.70
2019-06-07T02:58:11.378Z,14.70
2019-06-07T03:01:06.736Z,14.69
2019-06-07T03:03:24.624Z,14.69
2019-06-07T03:05:54.283Z,14.71
2019-06-07T03:08:23.376Z,14.72
2019-06-07T03:10:53.145Z,14.73
2019-06-07T03:13:22.662Z,14.75
2019-06-07T03:15:53.846Z,14.77
2019-06-07T03:18:41.757Z,14.81
2019-06-07T03:21:17.902Z,14.84
2019-06-07T03:23:48.032Z,14.88
2019-06-07T03:26:18.626Z,14.92
2019-06-07T03:28:48.216Z,14.93
2019-06-07T03:31:17.292Z,14.94
2019-06-07T03:33:46.419Z,14.96
2019-06-07T03:36:23.691Z,14.98
2019-06-07T03:38:46.289Z,14.99
2019-06-07T03:41:15.383Z,15.00
2019-06-07T03:43:44.493Z,15.01
2019-06-07T03:46:13.662Z,15.03
2019-06-07T03:48:42.752Z,15.05
2019-06-07T03:51:23.979Z,15.06
2019-06-07T03:53:42.555Z,15.08
2019-06-07T03:56:12.745Z,15.09
2019-06-07T03:58:49.744Z,15.11
2019-06-07T04:01:13.164Z,15.13
2019-06-07T04:03:50.965Z,15.14
2019-06-07T04:06:13.078Z,15.18
2019-06-07T04:08:42.435Z,15.20
2019-06-07T04:11:11.523Z,15.21
2019-06-07T04:13:42.975Z,15.24
2019-06-07T04:16:11.643Z,15.26
2019-06-07T04:18:42.386Z,15.27
2019-06-07T04:21:11.579Z,15.30
2019-06-07T04:23:45.547Z,15.31
2019-06-07T04:26:11.470Z,15.36
2019-06-07T04:29:31.125Z,15.38
2019-06-07T04:31:13.513Z,15.41
2019-06-07T04:33:43.660Z,15.43
2019-06-07T04:36:13.779Z,15.46
2019-06-07T04:38:43.742Z,15.48
2019-06-07T04:41:13.872Z,15.52
2019-06-07T04:43:43.872Z,15.55
2019-06-07T04:46:13.665Z,15.57
2019-06-07T04:48:45.392Z,15.60
2019-06-07T04:51:15.590Z,15.63
2019-06-07T04:53:44.665Z,15.64
2019-06-07T04:56:13.761Z,15.64
2019-06-07T04:58:43.145Z,15.65
2019-06-07T05:01:26.889Z,15.65
2019-06-07T05:03:44.366Z,15.65
2019-06-07T05:06:14.807Z,15.65
2019-06-07T05:08:44.058Z,15.66
2019-06-07T05:11:13.194Z,15.68
2019-06-07T05:13:43.839Z,15.67
2019-06-07T05:16:13.303Z,15.69
2019-06-07T05:18:43.225Z,15.72
2019-06-07T05:21:12.541Z,15.76
2019-06-07T05:24:05.278Z,15.78
2019-06-07T05:26:12.404Z,15.79
2019-06-07T05:28:43.058Z,15.80
2019-06-07T05:31:12.591Z,15.82
2019-06-07T05:33:43.576Z,15.83
2019-06-07T05:36:12.454Z,15.86
2019-06-07T05:38:44.804Z,15.88
2019-06-07T05:41:12.340Z,15.91
2019-06-07T05:43:49.503Z,15.93
2019-06-07T05:46:12.224Z,15.96
2019-06-07T05:48:42.480Z,15.99
2019-06-07T05:51:12.038Z,16.03
2019-06-07T05:53:44.702Z,16.05
2019-06-07T05:56:12.828Z,16.10
2019-06-07T05:58:44.575Z,16.14
2019-06-07T06:01:42.261Z,16.17
2019-06-07T06:03:46.609Z,16.23
2019-06-07T06:06:14.738Z,16.27
2019-06-07T06:08:45.249Z,16.30
2019-06-07T06:11:14.488Z,16.36
2019-06-07T06:14:05.968Z,16.38
2019-06-07T06:16:14.394Z,16.42
2019-06-07T06:18:47.065Z,16.48
2019-06-07T06:21:19.346Z,16.51
2019-06-07T06:23:47.987Z,16.58
2019-06-07T06:26:15.934Z,16.64
2019-06-07T06:28:45.448Z,16.72
2019-06-07T06:31:14.581Z,16.79
2019-06-07T06:33:45.249Z,16.89
2019-06-07T06:36:14.471Z,16.94
2019-06-07T06:38:43.920Z,17.00
2019-06-07T06:41:16.332Z,17.07
2019-06-07T06:43:46.752Z,17.11
2019-06-07T06:46:31.800Z,17.20
2019-06-07T06:48:51.718Z,17.27
2019-06-07T06:51:16.805Z,17.34
2019-06-07T06:53:46.870Z,17.43
2019-06-07T06:56:16.841Z,17.51
2019-06-07T06:59:27.306Z,17.61
2019-06-07T07:01:16.866Z,17.70
2019-06-07T07:04:06.834Z,17.79
2019-06-07T07:06:25.905Z,17.85
2019-06-07T07:08:53.300Z,17.89
2019-06-07T07:11:23.157Z,17.97
2019-06-07T07:13:56.198Z,18.06
2019-06-07T07:16:23.660Z,18.17
2019-06-07T07:18:54.608Z,18.28
2019-06-07T07:21:23.559Z,18.38
2019-06-07T07:24:19.748Z,18.47
2019-06-07T07:26:23.441Z,18.57
2019-06-07T07:28:57.249Z,18.66
2019-06-07T07:31:23.295Z,18.77
2019-06-07T07:34:29.059Z,18.87
2019-06-07T07:36:38.899Z,18.95
2019-06-07T07:39:00.447Z,19.01
2019-06-07T07:41:25.009Z,19.03
2019-06-07T07:44:05.488Z,19.05
2019-06-07T07:46:29.536Z,19.12
2019-06-07T07:48:56.256Z,19.18
2019-06-07T07:51:25.389Z,19.25
2019-06-07T07:54:08.674Z,19.37
2019-06-07T07:56:25.269Z,19.49
2019-06-07T07:59:00.214Z,19.54
2019-06-07T08:01:25.171Z,19.59
2019-06-07T08:03:56.125Z,19.65
2019-06-07T08:06:25.153Z,19.62
2019-06-07T08:08:56.962Z,19.62
2019-06-07T08:11:25.027Z,19.60
2019-06-07T08:13:57.238Z,19.66
2019-06-07T08:16:24.907Z,19.73
2019-06-07T08:18:58.612Z,19.75
2019-06-07T08:21:27.353Z,19.78
2019-06-07T08:24:00.749Z,19.75
2019-06-07T08:26:27.556Z,19.73
2019-06-07T08:28:59.736Z,19.75
2019-06-07T08:31:27.505Z,19.77
2019-06-07T08:33:58.442Z,19.78
2019-06-07T08:36:41.283Z,19.80
2019-06-07T08:39:06.742Z,19.88
2019-06-07T08:41:29.107Z,19.98
2019-06-07T08:44:00.585Z,20.10
2019-06-07T08:46:29.018Z,20.16
2019-06-07T08:49:02.632Z,20.23
2019-06-07T08:51:28.851Z,20.29
2019-06-07T08:54:20.629Z,20.31
2019-06-07T08:56:28.806Z,20.37
2019-06-07T08:59:05.533Z,20.45
2019-06-07T09:01:29.334Z,20.54
2019-06-07T09:04:02.814Z,20.59
2019-06-07T09:09:01.998Z,20.67
2019-06-07T09:11:30.844Z,20.67
2019-06-07T09:14:02.911Z,20.69
2019-06-07T09:16:30.755Z,20.79
2019-06-07T09:19:03.867Z,20.89
2019-06-07T09:21:30.651Z,21.01
2019-06-07T09:24:05.486Z,21.14
2019-06-07T09:26:30.662Z,21.24
2019-06-07T09:29:01.368Z,21.32
2019-06-07T09:31:51.360Z,21.41
2019-06-07T09:34:10.297Z,21.51
2019-06-07T09:36:32.175Z,21.60
2019-06-07T09:39:07.411Z,21.71
2019-06-07T09:41:46.998Z,21.83
2019-06-07T09:44:19.113Z,21.97
2019-06-07T09:46:34.535Z,22.13
2019-06-07T09:49:22.982Z,22.22
2019-06-07T09:51:34.423Z,22.38
2019-06-07T09:54:06.881Z,22.54
2019-06-07T09:56:34.315Z,22.57
2019-06-07T09:59:06.854Z,22.50
2019-06-07T10:01:34.227Z,22.49
2019-06-07T10:04:08.264Z,22.49
2019-06-07T10:06:34.135Z,22.53
2019-06-07T10:11:34.102Z,22.74
2019-06-07T10:14:04.475Z,22.86
2019-06-07T10:16:46.152Z,22.91
2019-06-07T10:19:05.613Z,22.95
2019-06-07T10:21:34.812Z,23.01
2019-06-07T10:24:03.920Z,23.07
2019-06-07T10:26:32.996Z,23.17
2019-06-07T10:29:02.101Z,23.20
2019-06-07T10:31:31.166Z,23.27
2019-06-07T10:34:00.562Z,23.40
2019-06-07T10:36:29.740Z,23.57
2019-06-07T10:38:58.843Z,23.54
2019-06-07T10:41:27.927Z,23.55
2019-06-07T10:43:57.002Z,23.64
2019-06-07T10:46:26.103Z,23.70
2019-06-07T10:48:55.211Z,23.81
2019-06-07T10:51:24.318Z,23.91
2019-06-07T10:53:53.434Z,23.81
2019-06-07T10:56:22.549Z,23.89
2019-06-07T10:58:51.631Z,23.90
2019-06-07T11:01:20.753Z,23.96
2019-06-07T11:03:49.830Z,23.95
2019-06-07T11:06:18.911Z,23.89
2019-06-07T11:08:47.995Z,23.78
2019-06-07T11:11:17.111Z,23.82
2019-06-07T11:13:46.114Z,23.97
2019-06-07T11:16:15.823Z,24.08
2019-06-07T11:18:44.900Z,24.26
2019-06-07T11:21:14.395Z,24.39
2019-06-07T11:23:43.505Z,24.49
2019-06-07T11:26:12.618Z,24.51
2019-06-07T11:28:41.698Z,24.54
2019-06-07T11:31:11.336Z,24.61
2019-06-07T11:33:41.065Z,24.81
2019-06-07T11:36:10.644Z,24.87
2019-06-07T11:38:39.830Z,24.96
2019-06-07T11:41:09.384Z,25.17
2019-06-07T11:43:38.482Z,25.22
2019-06-07T11:46:08.777Z,25.42
2019-06-07T11:48:38.049Z,25.66
2019-06-07T11:51:08.474Z,25.79
2019-06-07T11:53:37.675Z,25.88
2019-06-07T11:56:07.869Z,25.98
2019-06-07T11:58:37.049Z,26.13
2019-06-07T12:01:07.565Z,26.55
2019-06-07T12:03:36.811Z,26.55
2019-06-07T12:06:05.983Z,26.73
2019-06-07T12:08:35.058Z,26.80
2019-06-07T12:11:04.184Z,26.96
2019-06-07T12:13:33.289Z,27.00
2019-06-07T12:16:02.371Z,27.18
2019-06-07T12:18:31.449Z,27.36
2019-06-07T12:21:00.533Z,27.45
2019-06-07T12:23:29.614Z,27.60
2019-06-07T12:25:58.714Z,27.63
2019-06-07T12:28:27.783Z,27.60
2019-06-07T12:30:56.885Z,27.55
2019-06-07T12:33:25.974Z,27.70
2019-06-07T12:35:55.088Z,27.89
2019-06-07T12:38:24.159Z,27.93
2019-06-07T12:40:57.433Z,27.77
2019-06-07T12:43:24.047Z,27.68
2019-06-07T12:45:53.122Z,27.59
2019-06-07T12:48:25.545Z,27.64
2019-06-07T12:50:53.138Z,27.50
2019-06-07T12:53:26.661Z,27.57
2019-06-07T12:55:53.016Z,27.69
2019-06-07T12:58:30.548Z,27.92
2019-06-07T13:00:53.030Z,28.12
2019-06-07T13:03:22.566Z,28.28
2019-06-07T13:05:51.754Z,28.38
2019-06-07T13:08:22.032Z,28.47
2019-06-07T13:10:51.402Z,28.51
2019-06-07T13:13:21.376Z,28.59
2019-06-07T13:15:51.294Z,28.71
2019-06-07T13:18:21.755Z,28.71
2019-06-07T13:20:55.149Z,28.69
2019-06-07T13:23:22.657Z,28.85
2019-06-07T13:25:51.768Z,28.82
2019-06-07T13:28:20.975Z,28.88
2019-06-07T13:30:50.044Z,28.94
2019-06-07T13:33:19.136Z,29.05
2019-06-07T13:35:48.196Z,29.14
2019-06-07T13:38:26.816Z,29.27
2019-06-07T13:40:57.056Z,29.34
2019-06-07T13:43:28.001Z,29.50
2019-06-07T13:45:57.354Z,29.50
2019-06-07T13:48:27.759Z,29.55
2019-06-07T13:50:57.112Z,29.57
2019-06-07T13:53:26.226Z,29.58
2019-06-07T13:55:55.280Z,29.64
2019-06-07T13:58:24.374Z,29.48
2019-06-07T14:00:53.481Z,29.51
2019-06-07T14:03:27.862Z,29.49
2019-06-07T14:05:53.384Z,29.43
2019-06-07T14:08:23.247Z,29.32
2019-06-07T14:10:52.391Z,29.11
2019-06-07T14:13:21.638Z,29.12
2019-06-07T14:15:50.725Z,29.24
2019-06-07T14:18:20.390Z,29.28
2019-06-07T14:20:49.413Z,29.38
2019-06-07T14:23:18.586Z,29.41
2019-06-07T14:25:47.696Z,29.33
2019-06-07T14:28:16.642Z,29.28
2019-06-07T14:30:45.714Z,29.17
2019-06-07T14:33:14.838Z,29.22
2019-06-07T14:35:43.905Z,29.33
2019-06-07T14:38:13.297Z,29.45
2019-06-07T14:40:42.401Z,29.51
2019-06-07T14:43:11.487Z,29.53
2019-06-07T14:45:40.563Z,29.49
2019-06-07T14:48:09.663Z,29.45
2019-06-07T14:50:38.772Z,29.48
2019-06-07T14:53:07.827Z,29.51
2019-06-07T14:55:36.898Z,29.49
2019-06-07T14:58:06.007Z,29.47
2019-06-07T15:00:44.915Z,29.51
2019-06-07T15:03:13.926Z,29.56
2019-06-07T15:05:42.922Z,29.62
2019-06-07T15:08:12.005Z,29.58
2019-06-07T15:10:41.074Z,29.56
2019-06-07T15:13:10.544Z,29.48
2019-06-07T15:15:39.585Z,29.42
2019-06-07T15:18:08.686Z,29.36
2019-06-07T15:20:38.345Z,29.36
2019-06-07T15:23:08.013Z,29.41
2019-06-07T15:25:37.173Z,29.40
2019-06-07T15:28:06.262Z,29.34
2019-06-07T15:30:35.722Z,29.28
2019-06-07T15:33:05.014Z,29.22
2019-06-07T15:35:35.977Z,29.14
2019-06-07T15:38:05.031Z,29.06
2019-06-07T15:40:35.220Z,28.89
2019-06-07T15:43:04.395Z,28.68
2019-06-07T15:45:33.712Z,28.53
2019-06-07T15:48:02.967Z,28.48
2019-06-07T15:50:32.249Z,28.46
2019-06-07T15:53:01.402Z,28.45
2019-06-07T15:55:31.982Z,28.36
2019-06-07T15:58:01.295Z,28.26
2019-06-07T16:00:31.355Z,28.13
2019-06-07T16:03:00.533Z,28.04
2019-06-07T16:05:29.635Z,27.94
2019-06-07T16:07:58.715Z,27.82
2019-06-07T16:10:27.796Z,27.58
2019-06-07T16:13:00.523Z,27.48
2019-06-07T16:15:27.671Z,27.34
2019-06-07T16:17:56.769Z,27.19
2019-06-07T16:20:25.863Z,27.09
2019-06-07T16:22:54.923Z,27.07
2019-06-07T16:25:24.009Z,26.87
2019-06-07T16:27:53.087Z,26.82
2019-06-07T16:30:22.190Z,26.82
2019-06-07T16:32:51.278Z,26.78
2019-06-07T16:35:20.401Z,26.70
2019-06-07T16:37:52.073Z,26.61
2019-06-07T16:40:20.274Z,26.50
2019-06-07T16:42:49.370Z,26.42
2019-06-07T16:45:18.972Z,26.31
2019-06-07T16:47:49.733Z,26.24
2019-06-07T16:50:19.576Z,26.19
2019-06-07T16:52:48.851Z,26.05
2019-06-07T16:55:18.528Z,26.05
2019-06-07T16:57:49.084Z,25.97
2019-06-07T17:00:19.189Z,25.96
2019-06-07T17:02:49.110Z,25.90
2019-06-07T17:05:18.605Z,25.82
2019-06-07T17:07:48.950Z,25.79
2019-06-07T17:10:18.601Z,25.81
2019-06-07T17:12:48.957Z,25.77
2019-06-07T17:15:19.935Z,25.73
2019-06-07T17:17:49.367Z,25.68
2019-06-07T17:20:19.926Z,25.62
2019-06-07T17:22:49.782Z,25.49
2019-06-07T17:25:19.798Z,25.46
2019-06-07T17:27:50.178Z,25.41
2019-06-07T17:30:19.494Z,25.37
2019-06-07T17:32:57.627Z,25.35
2019-06-07T17:35:19.911Z,25.28
2019-06-07T17:37:49.690Z,25.20
2019-06-07T17:40:19.913Z,25.14
2019-06-07T17:42:49.115Z,25.13
2019-06-07T17:45:18.767Z,25.10
2019-06-07T17:47:47.874Z,25.06
2019-06-07T17:50:17.148Z,25.05
2019-06-07T17:52:46.305Z,25.01
2019-06-07T17:55:15.796Z,24.99
2019-06-07T17:57:46.525Z,24.97
2019-06-07T18:00:33.480Z,24.93
2019-06-07T18:02:47.130Z,24.95
2019-06-07T18:05:16.560Z,24.93
2019-06-07T18:07:47.754Z,24.92
2019-06-07T18:10:26.583Z,24.91
2019-06-07T18:12:55.662Z,24.87
2019-06-07T18:15:36.412Z,24.82
2019-06-07T18:18:05.595Z,24.77
2019-06-07T18:20:34.751Z,24.73
2019-06-07T18:23:03.841Z,24.71
2019-06-07T18:25:32.912Z,24.63
2019-06-07T18:28:02.010Z,24.63
2019-06-07T18:30:31.080Z,24.59
2019-06-07T18:33:00.179Z,24.55
2019-06-07T18:35:29.245Z,24.56
2019-06-07T18:37:59.307Z,24.52
2019-06-07T18:40:28.408Z,24.48
2019-06-07T18:42:57.512Z,24.45
2019-06-07T18:45:26.573Z,24.42
2019-06-07T18:47:55.791Z,24.41
2019-06-07T18:50:24.825Z,24.39
2019-06-07T18:52:54.923Z,24.34
2019-06-07T18:55:24.070Z,24.29
2019-06-07T18:57:54.427Z,24.26
2019-06-07T19:00:25.679Z,24.23
2019-06-07T19:02:56.128Z,24.19
2019-06-07T19:05:25.250Z,24.15
2019-06-07T19:07:54.763Z,24.12
2019-06-07T19:10:24.427Z,24.09
2019-06-07T19:12:53.586Z,24.05
2019-06-07T19:15:23.380Z,24.01
2019-06-07T19:17:53.897Z,23.96
2019-06-07T19:20:23.364Z,23.94
2019-06-07T19:22:52.450Z,23.90
2019-06-07T19:25:21.634Z,23.86
2019-06-07T19:27:50.797Z,23.81
2019-06-07T19:30:22.174Z,23.75
2019-06-07T19:32:51.510Z,23.72
2019-06-07T19:35:21.218Z,23.67
2019-06-07T19:37:51.590Z,23.62
2019-06-07T19:40:21.069Z,23.57
2019-06-07T19:42:50.249Z,23.53
2019-06-07T19:45:34.990Z,23.48
2019-06-07T19:47:50.584Z,23.40
2019-06-07T19:50:19.760Z,23.36
2019-06-07T19:52:48.849Z,23.32
2019-06-07T19:55:18.037Z,23.28
2019-06-07T19:57:50.110Z,23.23
2019-06-07T20:00:18.147Z,23.20
2019-06-07T20:02:47.266Z,23.15
2019-06-07T20:05:17.638Z,23.09
2019-06-07T20:07:46.649Z,23.06
2019-06-07T20:10:16.184Z,23.02
2019-06-07T20:12:45.267Z,23.00
2019-06-07T20:15:27.899Z,22.95
2019-06-07T20:17:45.558Z,22.88
2019-06-07T20:20:14.633Z,22.85
2019-06-07T20:22:43.749Z,22.82
2019-06-07T20:25:13.242Z,22.76
2019-06-07T20:27:42.329Z,22.71
2019-06-07T20:30:12.219Z,22.66
2019-06-07T20:32:41.325Z,22.63
2019-06-07T20:35:10.604Z,22.62
2019-06-07T20:37:39.778Z,22.57
2019-06-07T20:40:23.398Z,22.57
2019-06-07T20:42:41.103Z,22.55
2019-06-07T20:45:10.478Z,22.52
2019-06-07T20:47:39.540Z,22.50
2019-06-07T20:50:09.240Z,22.47
2019-06-07T20:52:38.956Z,22.43
2019-06-07T20:55:09.913Z,22.39
2019-06-07T20:57:39.052Z,22.35
2019-06-07T21:00:20.409Z,22.30
2019-06-07T21:02:40.386Z,22.25
2019-06-07T21:05:10.204Z,22.16
2019-06-07T21:07:39.226Z,22.13
2019-06-07T21:10:10.446Z,22.07
2019-06-07T21:12:39.416Z,22.03
2019-06-07T21:15:14.141Z,22.00
2019-06-07T21:17:41.330Z,21.97
2019-06-07T21:20:14.179Z,21.93
2019-06-07T21:22:41.766Z,21.91
2019-06-07T21:25:11.849Z,21.87
2019-06-07T21:27:41.014Z,21.83
2019-06-07T21:30:11.614Z,21.81
2019-06-07T21:32:40.869Z,21.79
2019-06-07T21:35:12.200Z,21.79
2019-06-07T21:37:41.630Z,21.77
2019-06-07T21:40:12.092Z,21.77
2019-06-07T21:42:41.284Z,21.75
2019-06-07T21:45:11.844Z,21.75
2019-06-07T21:47:41.138Z,21.73
2019-06-07T21:50:10.905Z,21.71
2019-06-07T21:52:40.100Z,21.72
2019-06-07T21:55:09.437Z,21.71
2019-06-07T21:57:38.466Z,21.69
2019-06-07T22:00:11.709Z,21.68
2019-06-07T22:02:41.322Z,21.67
2019-06-07T22:05:11.728Z,21.67
2019-06-07T22:07:40.976Z,21.65
2019-06-07T22:10:10.196Z,21.64
2019-06-07T22:12:39.208Z,21.63
2019-06-07T22:15:28.453Z,21.63
2019-06-07T22:17:39.236Z,21.61
2019-06-07T22:20:08.764Z,21.62
2019-06-07T22:22:37.866Z,21.61
2019-06-07T22:25:07.518Z,21.59
2019-06-07T22:27:36.582Z,21.59
2019-06-07T22:30:06.640Z,21.55
2019-06-07T22:32:35.744Z,21.55
2019-06-07T22:35:05.146Z,21.51
2019-06-07T22:37:34.199Z,21.38
2019-06-07T22:40:03.407Z,21.20
2019-06-07T22:42:32.480Z,21.02
2019-06-07T22:45:01.597Z,20.86
2019-06-07T22:47:30.672Z,20.74
2019-06-07T22:49:59.712Z,20.65
2019-06-07T22:52:28.799Z,20.53
2019-06-07T22:54:57.892Z,20.35
2019-06-07T22:57:28.642Z,20.02
2019-06-07T22:59:57.745Z,19.70
2019-06-07T23:02:26.855Z,19.46
2019-06-07T23:04:55.957Z,19.21
2019-06-07T23:07:24.952Z,19.04
2019-06-07T23:09:54.043Z,18.84
2019-06-07T23:12:23.122Z,18.71
2019-06-07T23:14:52.296Z,18.64
2019-06-07T23:17:21.373Z,18.52
2019-06-07T23:19:50.476Z,18.41
2019-06-07T23:22:20.143Z,18.35
2019-06-07T23:24:49.242Z,18.28
2019-06-07T23:27:18.479Z,18.18
2019-06-07T23:29:47.484Z,18.11
2019-06-07T23:32:16.762Z,18.09
2019-06-07T23:34:45.812Z,18.12
2019-06-07T23:37:15.040Z,18.17
2019-06-07T23:39:44.055Z,18.17
2019-06-07T23:42:13.363Z,18.15
2019-06-07T23:44:42.502Z,18.13
2019-06-07T23:47:15.165Z,18.12
2019-06-07T23:49:42.416Z,18.07
2019-06-07T23:52:11.954Z,18.01
2019-06-07T23:54:40.988Z,17.94
2019-06-07T23:57:10.080Z,17.89
2019-06-07T23:59:39.191Z,17.85
